Station: Hohenfels, ICAO: ETIH, Synop: Synop: 10775,
Koordinaten: 4913'00''N 01150'00''E, Hoehe: 442m, Entfernung: 33.86km
2018/04/24 12:56
ETIH 241256Z AUTO 31005KT 9999 FEW049 FEW210 19/08 A3006 RMK AO2 SLP172 T01880082 $


Station: HOHENFELS (USAF), ICAO: EDIH, Synop: Synop: 10775,
Koordinaten: 49 13 N 011 49 E, Hoehe: 442m, Entfernung: 34.63km


Station: GAERMERSDORF, ICAO: EDZH, Synop: ,
Koordinaten: 49 25 N 011 54 E, Hoehe: 419m, Entfernung: 51.28km


Station: Ingolstadt, ICAO: ETSI, Synop: Synop: 10860,
Koordinaten: 4843'00''N 01132'00''E, Hoehe: 367m, Entfernung: 52.18km
2018/04/24 13:20
ETSI 241320Z 25011KT 9999 FEW060 BKN300 21/07 Q1017 BLU+BLU+


Station: Kuemmersruck, ICAO: ETGK, Synop: Synop: 10771,
Koordinaten: 4926'00''N 01154'00''E, Hoehe: 419m, Entfernung: 53.04km


Station: Neuburg / Donau, ICAO: ETSN, Synop: Synop: 10853,
Koordinaten: 4843'00''N 01113'00''E, Hoehe: 380m, Entfernung: 72.54km
2018/04/24 13:20
ETSN 241320Z 26008KT 9999 SCT045 BKN260 20/09 Q1017 BLU+


mehr Wetter
WetterInfo - adds.pl 2.6.003 DL3EL © 2004-2017 [376432]